createdAt,value
2019-03-09T00:01:37.637Z,3.03
2019-03-09T00:06:31.498Z,2.40
2019-03-09T00:11:25.500Z,2.50
2019-03-09T00:16:19.449Z,2.67
2019-03-09T00:21:13.838Z,2.73
2019-03-09T00:26:15.607Z,2.70
2019-03-09T00:31:11.498Z,2.70
2019-03-09T00:36:05.315Z,2.20
2019-03-09T00:40:59.207Z,2.87
2019-03-09T00:45:53.067Z,3.47
2019-03-09T00:50:46.930Z,3.73
2019-03-09T00:55:40.909Z,3.20
2019-03-09T01:00:34.941Z,3.17
2019-03-09T01:05:28.905Z,3.83
2019-03-09T01:10:22.871Z,3.30
2019-03-09T01:15:16.742Z,2.93
2019-03-09T01:20:13.211Z,3.37
2019-03-09T01:25:08.337Z,3.10
2019-03-09T01:30:04.095Z,3.53
2019-03-09T01:34:57.956Z,3.30
2019-03-09T01:39:51.910Z,2.97
2019-03-09T01:44:45.775Z,2.60
2019-03-09T01:49:39.742Z,2.30
2019-03-09T01:54:33.672Z,2.50
2019-03-09T01:59:27.516Z,2.60
2019-03-09T02:04:21.532Z,2.43
2019-03-09T02:09:15.395Z,2.40
2019-03-09T02:14:09.232Z,2.63
2019-03-09T02:19:03.113Z,2.40
2019-03-09T02:23:56.937Z,2.67
2019-03-09T02:28:50.775Z,2.50
2019-03-09T02:33:44.627Z,2.33
2019-03-09T02:38:46.509Z,2.27
2019-03-09T02:43:40.352Z,1.90
2019-03-09T02:48:34.241Z,1.90
2019-03-09T02:53:28.052Z,1.73
2019-03-09T02:58:21.929Z,1.57
2019-03-09T03:03:15.921Z,1.90
2019-03-09T03:08:09.786Z,1.90
2019-03-09T03:13:03.651Z,2.23
2019-03-09T03:17:57.497Z,2.20
2019-03-09T03:22:51.351Z,2.80
2019-03-09T03:27:45.212Z,2.77
2019-03-09T03:32:39.159Z,2.83
2019-03-09T03:37:33.026Z,2.67
2019-03-09T03:42:26.890Z,2.90
2019-03-09T03:47:20.833Z,2.60
2019-03-09T03:52:14.709Z,2.70
2019-03-09T03:57:08.562Z,2.57
2019-03-09T04:02:02.520Z,2.87
2019-03-09T04:06:56.490Z,2.80
2019-03-09T04:11:50.462Z,2.53
2019-03-09T04:16:44.317Z,2.87
2019-03-09T04:21:38.198Z,2.53
2019-03-09T04:26:32.143Z,2.70
2019-03-09T04:31:26.120Z,3.03
2019-03-09T04:36:19.939Z,2.60
2019-03-09T04:41:13.799Z,3.67
2019-03-09T04:46:07.693Z,3.60
2019-03-09T04:51:01.566Z,3.93
2019-03-09T04:55:55.422Z,3.57
2019-03-09T05:00:49.280Z,4.10
2019-03-09T05:05:43.244Z,3.50
2019-03-09T05:10:43.590Z,3.60
2019-03-09T05:15:37.458Z,3.50
2019-03-09T05:20:31.315Z,3.73
2019-03-09T05:25:25.164Z,3.97
2019-03-09T05:30:36.730Z,3.63
2019-03-09T05:35:30.626Z,4.10
2019-03-09T05:40:24.493Z,4.40
2019-03-09T05:45:18.340Z,4.37
2019-03-09T05:50:12.193Z,4.70
2019-03-09T05:55:09.580Z,4.70
2019-03-09T06:00:07.272Z,5.10
2019-03-09T06:05:01.141Z,4.73
2019-03-09T06:09:55.298Z,5.57
2019-03-09T06:14:49.139Z,5.57
2019-03-09T06:19:42.997Z,5.43
2019-03-09T06:24:36.852Z,5.20
2019-03-09T06:29:30.700Z,5.20
2019-03-09T06:34:24.568Z,5.43
2019-03-09T06:39:18.428Z,5.17
2019-03-09T06:44:12.297Z,5.70
2019-03-09T06:49:06.147Z,5.00
2019-03-09T06:54:00.016Z,5.30
2019-03-09T06:58:53.890Z,4.77
2019-03-09T07:03:47.871Z,5.10
2019-03-09T07:08:41.832Z,4.60
2019-03-09T07:13:35.688Z,4.97
2019-03-09T07:18:30.656Z,4.60
2019-03-09T07:23:24.702Z,4.87
2019-03-09T07:28:18.557Z,4.67
2019-03-09T07:33:12.422Z,4.93
2019-03-09T07:38:06.397Z,4.90
2019-03-09T07:43:00.374Z,4.47
2019-03-09T07:47:54.336Z,4.83
2019-03-09T07:52:48.199Z,4.80
2019-03-09T07:57:42.170Z,5.30
2019-03-09T08:02:36.049Z,4.83
2019-03-09T08:07:29.926Z,4.87
2019-03-09T08:12:24.267Z,5.30
2019-03-09T08:17:18.378Z,5.00
2019-03-09T08:22:12.235Z,5.37
2019-03-09T08:27:06.116Z,4.90
2019-03-09T08:31:59.971Z,4.70
2019-03-09T08:36:53.942Z,5.30
2019-03-09T08:41:47.911Z,4.57
2019-03-09T08:46:41.802Z,4.50
2019-03-09T08:51:35.783Z,3.73
2019-03-09T08:56:29.868Z,3.50
2019-03-09T09:01:23.806Z,4.10
2019-03-09T09:06:17.669Z,3.70
2019-03-09T09:11:11.602Z,3.27
2019-03-09T09:16:05.455Z,3.90
2019-03-09T09:20:59.324Z,3.73
2019-03-09T09:25:53.305Z,3.10
2019-03-09T09:30:47.200Z,3.37
2019-03-09T09:35:41.075Z,3.30
2019-03-09T09:40:35.032Z,3.27
2019-03-09T09:45:29.090Z,3.07
2019-03-09T09:50:23.151Z,3.00
2019-03-09T09:55:18.283Z,3.33
2019-03-09T10:00:17.937Z,3.20
2019-03-09T10:05:11.946Z,3.13
2019-03-09T10:10:09.435Z,3.30
2019-03-09T10:15:07.138Z,2.97
2019-03-09T10:20:01.009Z,4.60
2019-03-09T10:24:55.003Z,3.57
2019-03-09T10:29:48.965Z,3.27
2019-03-09T10:34:42.845Z,3.10
2019-03-09T10:39:36.724Z,3.57
2019-03-09T10:44:30.759Z,2.90
2019-03-09T10:49:24.612Z,3.20
2019-03-09T10:54:18.502Z,2.40
2019-03-09T10:59:12.369Z,2.50
2019-03-09T11:04:06.486Z,2.37
2019-03-09T11:09:00.451Z,2.50
2019-03-09T11:13:54.440Z,2.60
2019-03-09T11:18:48.288Z,2.27
2019-03-09T11:23:42.530Z,2.40
2019-03-09T11:28:36.805Z,2.27
2019-03-09T11:33:30.739Z,2.10
2019-03-09T11:38:24.625Z,2.00
2019-03-09T11:43:18.568Z,1.80
2019-03-09T11:48:12.540Z,2.10
2019-03-09T11:53:06.435Z,2.00
2019-03-09T11:58:00.432Z,1.47
2019-03-09T12:02:54.453Z,1.62
2019-03-09T12:07:48.424Z,1.37
2019-03-09T12:12:42.417Z,1.30
2019-03-09T12:17:36.285Z,1.20
2019-03-09T12:22:30.445Z,1.00
2019-03-09T12:27:24.342Z,1.30
2019-03-09T12:32:18.235Z,1.60
2019-03-09T12:37:12.251Z,1.45
2019-03-09T12:42:06.237Z,1.52
2019-03-09T12:47:03.150Z,1.82
2019-03-09T12:51:59.057Z,2.25
2019-03-09T12:56:52.941Z,1.70
2019-03-09T13:01:46.991Z,1.77
2019-03-09T13:06:40.980Z,1.90
2019-03-09T13:11:34.924Z,1.80
2019-03-09T13:16:29.241Z,2.20
2019-03-09T13:21:23.073Z,2.22
2019-03-09T13:26:17.083Z,2.60
2019-03-09T13:31:10.963Z,2.70
2019-03-09T13:36:05.950Z,2.87
2019-03-09T13:41:00.048Z,3.37
2019-03-09T13:45:53.922Z,4.00
2019-03-09T13:50:47.897Z,3.80
2019-03-09T13:55:41.827Z,3.33
2019-03-09T14:00:40.540Z,3.40
2019-03-09T14:05:31.524Z,3.23
2019-03-09T14:10:25.449Z,3.43
2019-03-09T14:15:19.406Z,3.53
2019-03-09T14:20:15.229Z,3.33
2019-03-09T14:25:11.014Z,3.37
2019-03-09T14:30:15.745Z,3.70
2019-03-09T14:35:09.752Z,3.37
2019-03-09T14:40:06.330Z,3.50
2019-03-09T14:45:00.264Z,3.55
2019-03-09T14:49:54.268Z,3.47
2019-03-09T14:54:48.280Z,3.58
2019-03-09T14:59:42.328Z,4.40
2019-03-09T15:04:36.352Z,3.35
2019-03-09T15:09:30.276Z,3.33
2019-03-09T15:14:24.250Z,3.90
2019-03-09T15:19:18.194Z,2.83
2019-03-09T15:24:12.102Z,3.70
2019-03-09T15:29:05.980Z,2.95
2019-03-09T15:33:59.942Z,3.35
2019-03-09T15:38:53.856Z,2.58
2019-03-09T15:43:47.846Z,3.10
2019-03-09T15:48:41.862Z,1.90
2019-03-09T15:53:35.821Z,3.17
2019-03-09T15:58:29.764Z,3.60
2019-03-09T16:03:23.768Z,3.57
2019-03-09T16:08:17.651Z,4.07
2019-03-09T16:13:11.666Z,2.00
2019-03-09T16:18:05.518Z,2.43
2019-03-09T16:22:59.542Z,3.47
2019-03-09T16:33:49.858Z,3.10
2019-03-09T16:38:43.756Z,3.53
2019-03-09T16:43:37.626Z,3.13
2019-03-09T16:48:31.489Z,2.27
2019-03-09T16:53:25.477Z,1.60
2019-03-09T16:58:19.403Z,1.60
2019-03-09T17:03:13.398Z,1.67
2019-03-09T17:08:07.442Z,1.60
2019-03-09T17:13:01.448Z,1.73
2019-03-09T17:17:55.666Z,1.37
2019-03-09T17:22:49.751Z,1.63
2019-03-09T17:27:43.639Z,1.83
2019-03-09T17:32:37.614Z,1.70
2019-03-09T17:37:31.505Z,2.07
2019-03-09T17:42:25.377Z,1.80
2019-03-09T17:47:19.351Z,2.00
2019-03-09T17:52:13.371Z,2.47
2019-03-09T17:57:07.360Z,2.03
2019-03-09T18:02:01.365Z,1.97
2019-03-09T18:06:55.295Z,2.30
2019-03-09T18:11:49.168Z,2.30
2019-03-09T18:16:52.300Z,2.50
2019-03-09T18:21:38.851Z,2.60
2019-03-09T18:26:32.837Z,2.57
2019-03-09T18:31:26.842Z,2.60
2019-03-09T18:36:20.716Z,2.67
2019-03-09T18:41:14.718Z,2.30
2019-03-09T18:46:08.604Z,2.47
2019-03-09T18:51:02.613Z,2.97
2019-03-09T18:55:59.428Z,2.80
2019-03-09T19:00:52.228Z,2.40
2019-03-09T19:05:46.137Z,2.53
2019-03-09T19:10:39.989Z,2.50
2019-03-09T19:15:33.896Z,3.73
2019-03-09T19:20:27.860Z,4.10
2019-03-09T19:25:21.898Z,3.03
2019-03-09T19:30:21.124Z,3.30
2019-03-09T19:35:15.205Z,3.53
2019-03-09T19:40:17.491Z,3.80
2019-03-09T19:45:14.100Z,3.50
2019-03-09T19:50:18.512Z,3.70
2019-03-09T19:55:12.828Z,3.97
2019-03-09T20:00:10.290Z,4.03
2019-03-09T20:05:07.461Z,4.13
2019-03-09T20:10:01.807Z,3.27
2019-03-09T20:14:55.668Z,3.40
2019-03-09T20:19:49.646Z,3.60
2019-03-09T20:24:43.543Z,2.80
2019-03-09T20:29:37.443Z,2.97
2019-03-09T20:34:31.294Z,2.93
2019-03-09T20:39:25.310Z,2.83
2019-03-09T20:44:19.287Z,2.93
2019-03-09T20:49:13.277Z,2.67
2019-03-09T20:54:07.134Z,2.40
2019-03-09T20:59:00.986Z,2.03
2019-03-09T21:03:54.986Z,1.77
2019-03-09T21:08:48.951Z,2.03
2019-03-09T21:13:42.908Z,2.17
2019-03-09T21:18:37.022Z,2.20
2019-03-09T21:23:30.988Z,1.73
2019-03-09T21:28:24.840Z,2.10
2019-03-09T21:33:18.738Z,2.00
2019-03-09T21:38:12.635Z,2.23
2019-03-09T21:43:06.529Z,1.97
2019-03-09T21:48:00.369Z,1.80
2019-03-09T21:52:54.286Z,1.80
2019-03-09T21:57:48.205Z,2.17
2019-03-09T22:02:42.226Z,2.07
2019-03-09T22:07:36.160Z,2.10
2019-03-09T22:12:30.140Z,3.13
2019-03-09T22:17:24.028Z,2.53
2019-03-09T22:22:17.904Z,3.20
2019-03-09T22:27:11.776Z,2.73
2019-03-09T22:32:05.765Z,2.67
2019-03-09T22:36:59.653Z,3.10
2019-03-09T22:41:53.505Z,4.00
2019-03-09T22:46:47.459Z,4.67
2019-03-09T22:51:41.338Z,3.80
2019-03-09T22:56:35.374Z,4.13
2019-03-09T23:01:30.242Z,4.10
2019-03-09T23:06:24.250Z,4.40
2019-03-09T23:11:18.110Z,4.10
2019-03-09T23:16:12.028Z,5.23
2019-03-09T23:21:05.995Z,4.67
2019-03-09T23:25:59.854Z,4.87
2019-03-09T23:30:54.576Z,6.03
2019-03-09T23:35:48.890Z,5.47
2019-03-09T23:40:42.872Z,5.03
2019-03-09T23:45:37.020Z,4.67
2019-03-09T23:50:31.780Z,5.13
2019-03-09T23:55:25.974Z,5.33
